Reliance Steel And Aluminum (RS) Latest Bloomsberg Price


Mffais Ranking #2378 Overall / #3 Industry
Industry: Metal Svc Center And Other Whslrs

Number of Companies: 252 (Ranking #635 Overall/#1 Industry)
Inflow: $ 115,654 (K) (Ranking #883 Overall/#1 Industry)
Outflow: $ -181,036 (K)
Mffais Flow: $ -65,381 (K) (Ranking #2378 Overall/#3 Industry)


Receive a FREE weekly executive review of stocks moving into the top 10, taking the top industy spot or moving up within their industry. Sent directly to your Inbox every Saturday. Sign up today and get last week's review immediately sent to you.

We value and respect your privacy. Please read our Terms and Conditions which states our firm commitment to your privacy. Your email address will not be shared with a third party, nor will it be sold or used for purposes other than subscription for the weekly review.

Owner CPOR Shares Action Qty Chg Invested (K) Total Current Value (K)
Old Mutual Global Investors Uk Ltd 2016-09-30 220,151 New Holding 220,151 $ 16,661 $ 16,661
Robeco Institutional Asset Management B V 2016-09-30 932,217 Added More 135,801 $ 10,277 $ 70,550
Dimensional Fund Advisors Lp 2016-09-30 2,497,733 Added More 130,459 $ 9,873 $ 189,028
Otter Creek Advisors Llc 2016-09-30 156,800 Added More 97,400 $ 7,371 $ 11,866
Secor Capital Advisors Lp 2016-09-30 90,505 New Holding 90,505 $ 6,849 $ 6,849
Clark Capital Management Group Inc 2016-09-30 80,565 Added More 74,938 $ 5,671 $ 6,097
Capital Fund Management S A 2016-09-30 91,891 Added More 62,992 $ 4,767 $ 6,954
Teachers Advisors Inc 2016-09-30 170,819 Added More 62,628 $ 4,739 $ 12,927
Cipher Capital Lp 2016-09-30 95,921 Added More 60,952 $ 4,612 $ 7,259
Putnam Investments Llc 2016-09-30 114,803 Added More 48,799 $ 3,693 $ 8,688
Babson Capital Management Llc 2016-09-30 68,545 Added More 39,700 $ 3,004 $ 5,187
Bowling Portfolio Management Llc 2016-09-30 36,778 New Holding 36,778 $ 2,783 $ 2,783
Prudential Plc 2016-09-30 287,200 Added More 28,500 $ 2,156 $ 21,735
Poplar Forest Capital Llc 2016-09-30 737,116 Added More 27,027 $ 2,045 $ 55,784
Quantitative Investment Management Llc 2016-09-30 33,300 Added More 25,700 $ 1,944 $ 2,520
Axa 2016-09-30 24,300 New Holding 24,300 $ 1,839 $ 1,839
Blackrock Inc 2016-09-30 107,553 Added More 23,108 $ 1,748 $ 8,139
Sterling Capital Management Llc 2016-09-30 22,380 New Holding 22,380 $ 1,693 $ 1,693
Parametric Portfolio Associates Llc 2016-09-30 531,048 Added More 22,108 $ 1,673 $ 40,189
Cornerstone Capital Management Holdings Llc 2016-09-30 291,913 Added More 19,007 $ 1,438 $ 22,091
Her Majesty The Queen In Right Of The Province Of Alberta As 2016-09-30 13,400 New Holding 13,400 $ 1,014 $ 1,014
Panagora Asset Management Inc 2016-09-30 652,653 Added More 12,475 $ 944 $ 49,392
Kcg Holdings Inc 2016-09-30 20,090 Added More 12,273 $ 928 $ 1,520
Peak6 Investments L P 2016-09-30 21,454 Added More 12,054 $ 912 $ 1,623
Eagle Asset Management Inc 2016-09-30 52,045 Added More 11,341 $ 858 $ 3,938
Highbridge Capital Management Llc 2016-09-30 11,234 New Holding 11,234 $ 850 $ 850
Twin Capital Management Inc 2016-09-30 30,200 Added More 10,550 $ 798 $ 2,285
Cadence Capital Management Llc 2016-09-30 10,148 New Holding 10,148 $ 768 $ 768
Meeder Asset Management Inc 2016-09-30 30,803 Added More 9,131 $ 691 $ 2,331
Leuthold Group Llc 2016-09-30 9,108 New Holding 9,108 $ 689 $ 689
Squarepoint Ops Llc 2016-09-30 21,282 Added More 8,878 $ 671 $ 1,610
Northern Trust Corp 2016-09-30 734,772 Added More 7,696 $ 582 $ 55,607
Connor Clark Lunn Investment Management Ltd 2016-09-30 7,600 New Holding 7,600 $ 575 $ 575
Walleye Trading Llc 2016-09-30 15,022 Added More 7,422 $ 561 $ 1,136
Trexquant Investment Lp 2016-09-30 7,100 New Holding 7,100 $ 537 $ 537
Wbi Investments Inc 2016-09-30 6,745 New Holding 6,745 $ 510 $ 510
Gideon Capital Advisors Inc 2016-09-30 6,347 New Holding 6,347 $ 480 $ 480
Rhumbline Advisers 2016-09-30 122,089 Added More 5,769 $ 436 $ 9,239
Qcm Cayman Ltd 2016-09-30 5,552 New Holding 5,552 $ 420 $ 420
Regentatlantic Capital Llc 2016-09-30 28,499 Added More 5,460 $ 413 $ 2,156
Bluemountain Capital Management Llc 2016-09-30 18,432 Added More 5,433 $ 411 $ 1,394
Martingale Asset Management L P 2016-09-30 5,125 New Holding 5,125 $ 387 $ 387
Employees Retirement System Of Texas 2016-09-30 94,000 Added More 5,000 $ 378 $ 7,113
Blackrock Investment Management Llc 2016-09-30 451,961 Added More 4,903 $ 371 $ 34,204
Gareth Morgan Investments Limited Partnership 2016-09-30 46,608 Added More 4,485 $ 339 $ 3,527
Yellowstone Partners Llc 2016-09-30 4,200 New Holding 4,200 $ 317 $ 317
Verition Fund Management Llc 2016-09-30 4,100 New Holding 4,100 $ 310 $ 310
Pillar Pacific Capital Management Llc 2016-09-30 4,080 New Holding 4,080 $ 308 $ 308
Laurion Capital Management Lp 2016-09-30 3,900 New Holding 3,900 $ 295 $ 295
Gsa Capital Partners Llp 2016-09-30 3,895 New Holding 3,895 $ 294 $ 294
Hillsdale Investment Management Inc 2016-09-30 3,720 New Holding 3,720 $ 281 $ 281
Hancock Holding Co 2016-09-30 218,173 Added More 3,669 $ 277 $ 16,511
Boothbay Fund Management Llc 2016-09-30 3,480 New Holding 3,480 $ 263 $ 263
Legal General Group Plc 2016-09-30 63,750 Added More 3,215 $ 243 $ 4,824
Van Eck Associates Corp 2016-09-30 65,871 Added More 3,053 $ 231 $ 4,985
Cantab Capital Partners Llp 2016-09-30 12,834 Added More 2,623 $ 198 $ 971
Bks Advisors Llc 2016-09-30 2,500 New Holding 2,500 $ 189 $ 189
Deere Co 2016-09-30 21,394 Added More 2,330 $ 176 $ 1,619
Commonwealth Bank Of Australia 2016-09-30 13,455 Added More 2,000 $ 151 $ 1,018
Seven Eight Capital Llc 2016-09-30 6,150 Added More 1,900 $ 143 $ 465
Oshaughnessy Asset Management Llc 2016-09-30 37,562 Added More 1,761 $ 133 $ 2,842
Fdx Advisors Inc 2016-09-30 16,189 Added More 1,733 $ 131 $ 1,225
California State Teachers Retirement System 2016-09-30 152,555 Added More 1,300 $ 98 $ 11,545
Eqis Capital Management Inc 2016-09-30 6,662 Added More 1,277 $ 96 $ 504
Sei Investments Co 2016-09-30 4,269 Added More 1,206 $ 91 $ 323
World Asset Management Inc 2016-09-30 5,532 Added More 1,151 $ 87 $ 418
Mutual Of America Capital Management Llc 2016-09-30 54,323 Added More 1,078 $ 81 $ 4,111
Guggenheim Capital Llc 2016-09-30 284,586 Added More 1,012 $ 76 $ 21,537
Raymond James Associates 2016-09-30 14,690 Added More 927 $ 70 $ 1,111
Rdl Financial Inc 2016-09-30 18,288 Added More 845 $ 63 $ 1,384
Cornerstone Capital Inc 2016-09-30 128,450 Added More 715 $ 54 $ 9,721
Advisor Group Inc 2016-09-30 1,530 Added More 708 $ 53 $ 115
Pacer Advisors Inc 2016-09-30 8,186 Added More 666 $ 50 $ 619
United Services Automobile Association 2016-09-30 14,150 Added More 610 $ 46 $ 1,070
Creative Planning 2016-09-30 25,554 Added More 586 $ 44 $ 1,933
Mason Street Advisors Llc 2016-09-30 33,559 Added More 573 $ 43 $ 2,539
Blackrock Japan Co Ltd 2016-09-30 7,680 Added More 490 $ 37 $ 581
Alpha Windward Llc 2016-09-30 6,429 Added More 420 $ 31 $ 486
Benjamin F Edwards Company Inc 2016-09-30 665 Added More 384 $ 29 $ 50
Argent Capital Management Llc 2016-09-30 4,340 Added More 370 $ 28 $ 328
Cibc Asset Management Inc 2016-09-30 11,825 Added More 360 $ 27 $ 894
Ls Investment Advisors Llc 2016-09-30 4,680 Added More 290 $ 21 $ 354
Zurcher Kantonalbank Zurich Cantonalbank 2016-09-30 2,406 Added More 285 $ 21 $ 182
Deroy Devereaux Private Investment Counsel Inc 2016-09-30 120,906 Added More 232 $ 17 $ 9,150
Aperio Group Llc 2016-09-30 26,711 Added More 207 $ 15 $ 2,021
State Treasurer State Of Michigan 2016-09-30 29,200 Added More 200 $ 15 $ 2,209
Liberty Mutual Group Asset Management Inc 2016-09-30 31,390 Added More 193 $ 14 $ 2,375
Fifth Third Bancorp 2016-09-30 7,563 Added More 184 $ 13 $ 572
Cwm Llc 2016-09-30 180 New Holding 180 $ 13 $ 13
Ifp Advisors Inc 2016-09-30 702 Added More 130 $ 9 $ 53
Penserra Capital Management Llc 2016-09-30 260 Added More 116 $ 8 $ 19
Bb T Securities Llc 2016-09-30 6,316 Added More 115 $ 8 $ 477
Zions Bancorporation 2016-09-30 136 Added More 110 $ 8 $ 10
Point72 Asia Hong Kong Ltd 2016-09-30 300 Added More 100 $ 7 $ 22
First Citizens Bank Trust Co 2016-09-30 5,744 Added More 80 $ 6 $ 434
Ftb Advisors Inc 2016-09-30 70 New Holding 70 $ 5 $ 5
Weaver C Barksdale Associates Inc 2016-09-30 592 Added More 65 $ 4 $ 44
Pnc Financial Services Group Inc 2016-09-30 4,717 Added More 57 $ 4 $ 356
Next Financial Group Inc 2016-09-30 135 Added More 55 $ 4 $ 10
Smith Asset Management Group Lp 2016-09-30 860 Added More 50 $ 3 $ 65
Motco 2016-09-30 50 New Holding 50 $ 3 $ 3
Arrowpoint Asset Management Llc 2016-09-30 42 New Holding 42 $ 3 $ 3
Assetmark Inc 2016-09-30 37 New Holding 37 $ 2 $ 2
Us Bancorp De 2016-09-30 563 Added More 20 $ 1 $ 42
Globeflex Capital L P 2016-09-30 8,213 Added More 10 $ 0 $ 621
Northwestern Mutual Wealth Management Co 2016-09-30 455 Added More 8 $ 0 $ 34
Washington Trust Bank 2016-09-30 8 New Holding 8 $ 0 $ 0
Northwestern Mutual Investment Management Company Llc 2016-09-30 12,490 Added More 3 $ 0 $ 945
Finemark National Bank Trust 2016-09-30 483 Added More 3 $ 0 $ 36
Integrated Investment Consultants Llc 2016-09-30 1,140 No Change 0 $ 0 $ 86
Johnson Investment Counsel Inc 2016-09-30 15,985 No Change 0 $ 0 $ 1,209
Nisa Investment Advisors Llc 2016-09-30 45,410 No Change 0 $ 0 $ 3,436
Wilbanks Smith Thomas Asset Management Llc 2016-09-30 4,153 No Change 0 $ 0 $ 314
Advantus Capital Management Inc 2016-09-30 8,760 No Change 0 $ 0 $ 662
Dreman Value Management L L C 2016-09-30 183 No Change 0 $ 0 $ 13
Firstmerit Bank N A Trustee 2016-06-30 7,360 No Change 0 $ 0 $ 565
Fuller Thaler Asset Management Inc 2016-09-30 1,200 No Change 0 $ 0 $ 90
Kanaly Trust Co 2016-09-30 35 No Change 0 $ 0 $ 2
Jensen Investment Management Inc 2016-09-30 28,600 No Change 0 $ 0 $ 2,164
Farmers Merchants Investments Inc 2016-09-30 305 No Change 0 $ 0 $ 23
Gargoyle Investment Advisor L L C 2016-09-30 51,042 No Change 0 $ 0 $ 3,862
Jaffetilchin Investment Partners Llc 2016-09-30 3,335 No Change 0 $ 0 $ 252
Wealthtrust-Arizona Llc 2016-09-30 170 No Change 0 $ 0 $ 12
Northcoast Asset Management Llc 2016-09-30 11,630 No Change 0 $ 0 $ 880
Old Mutual Customised Solutions Proprietary Ltd 2016-09-30 1,900 No Change 0 $ 0 $ 143
Qs Investors Llc 2016-09-30 3,698 No Change 0 $ 0 $ 279
Partnervest Advisory Services Llc 2016-09-30 105,000 No Change 0 $ 0 $ 7,946
Wfg Advisors Lp 2016-09-30 8 No Change 0 $ 0 $ 0
Utah Retirement Systems 2016-09-30 12,672 No Change 0 $ 0 $ 959
Arizona State Retirement System 2016-09-30 28,284 No Change 0 $ 0 $ 2,140
Pdt Partners Llc 2016-09-30 94,700 No Change 0 $ 0 $ 7,166
Winfield Associates Inc 2016-09-30 500 No Change 0 $ 0 $ 37
Advisory Services Network Llc 2016-09-30 41 No Change 0 $ 0 $ 3
State Of Tennessee Treasury Department 2016-09-30 70,500 No Change 0 $ 0 $ 5,335
Mv Capital Management Inc 2016-09-30 22 No Change 0 $ 0 $ 1
Proficio Capital Partners Llc 2016-09-30 16 No Change 0 $ 0 $ 1
Alambic Investment Management L P 2016-09-30 11,100 No Change 0 $ 0 $ 840
Thompson Siegel Walmsley Llc 2016-09-30 0 Sold All -23 $ -1 $ 0
Quadrant Capital Group Llc 2016-09-30 10 Sold Some -23 $ -1 $ 0
Pitcairn Co 2016-09-30 4,472 Sold Some -25 $ -1 $ 338
New York Life Trust Co 2016-09-30 1,138 Sold Some -28 $ -2 $ 86
Us Financial Advisors Llc 2016-06-30 0 Sold All -32 $ -2 $ 0
Gemmer Asset Management Llc 2016-09-30 96 Sold Some -40 $ -3 $ 7
Synovus Financial Corp 2016-09-30 3,216 Sold Some -47 $ -3 $ 243
Texas Permanent School Fund 2016-09-30 55,253 Sold Some -54 $ -4 $ 4,181
Capstone Asset Management Co 2016-09-30 9,106 Sold Some -110 $ -8 $ 689
Msi Financial Services Inc 2016-09-30 642 Sold Some -131 $ -9 $ 48
Tower Research Capital Llc Trc 2016-09-30 7,204 Sold Some -136 $ -10 $ 545
Perigon Wealth Management Llc 2016-09-30 0 Sold All -141 $ -10 $ 0
Cutler Group Lp 2016-09-30 3,100 Sold Some -180 $ -13 $ 234
Financial Architects Inc 2016-09-30 0 Sold All -200 $ -15 $ 0
Edge Asset Management Inc 2016-09-30 157,004 Sold Some -202 $ -15 $ 11,882
Aberdeen Asset Management Plc Uk 2016-09-30 6,466 Sold Some -291 $ -22 $ 489
Bronfman E L Rothschild L P 2016-09-30 5,469 Sold Some -328 $ -24 $ 413
Freestone Capital Holdings Llc 2016-09-30 13,142 Sold Some -354 $ -26 $ 994
Symphony Asset Management Llc 2016-09-30 12,995 Sold Some -359 $ -27 $ 983
Comerica Bank 2016-09-30 54,557 Sold Some -405 $ -30 $ 4,128
Checchi Capital Advisers Llc 2016-09-30 0 Sold All -414 $ -31 $ 0
Stifel Financial Corp 2016-09-30 16,581 Sold Some -435 $ -32 $ 1,254
Burney Co 2016-09-30 3,573 Sold Some -440 $ -33 $ 270
Shell Asset Management Co 2016-09-30 9,758 Sold Some -448 $ -33 $ 738
Ibm Retirement Fund 2016-09-30 6,571 Sold Some -450 $ -34 $ 497
361 Capital Llc 2016-09-30 0 Sold All -464 $ -35 $ 0
Teachers Retirement System Of The State Of Kentucky 2016-09-30 18,900 Sold Some -500 $ -37 $ 1,430
Sigma Planning Corp 2016-09-30 3,929 Sold Some -510 $ -38 $ 297
Reilly Financial Advisors Llc 2016-09-30 8,250 Sold Some -600 $ -45 $ 624
Springbok Capital Management Llc 2016-09-30 997 Sold Some -655 $ -49 $ 75
Dalton Greiner Hartman Maher Co 2016-09-30 3,809 Sold Some -681 $ -51 $ 288
Smith Graham Co Investment Advisors Lp 2016-09-30 47,320 Sold Some -690 $ -52 $ 3,581
Howe Rusling Inc 2016-09-30 0 Sold All -770 $ -58 $ 0
Hightower Advisors Llc 2016-09-30 29,078 Sold Some -771 $ -58 $ 2,200
Nationwide Fund Advisors 2016-09-30 271,402 Sold Some -800 $ -60 $ 20,539
Proshare Advisors Llc 2016-09-30 11,150 Sold Some -964 $ -72 $ 843
Systematic Financial Management Lp 2016-09-30 22,435 Sold Some -1,110 $ -84 $ 1,697
C M Bidwell Associates Ltd 2016-09-30 0 Sold All -1,305 $ -98 $ 0
Cambria Investment Management L P 2016-09-30 15,817 Sold Some -1,344 $ -101 $ 1,197
Acrospire Investment Management Llc 2016-09-30 296 Sold Some -1,446 $ -109 $ 22
Ladenburg Thalmann Financial Services Inc 2016-09-30 14,890 Sold Some -1,468 $ -111 $ 1,126
Nomura Asset Management Co Ltd 2016-09-30 0 Sold All -1,590 $ -120 $ 0
M T Bank Corp 2016-09-30 6,606 Sold Some -1,856 $ -140 $ 499
Advisors Asset Management Inc 2016-09-30 12,527 Sold Some -1,927 $ -145 $ 948
Centurylink Investment Management Co 2016-09-30 18,632 Sold Some -2,087 $ -157 $ 1,410
Teacher Retirement System Of Texas 2016-09-30 7,766 Sold Some -2,253 $ -170 $ 587
Tudor Investment Corp Et Al 2016-09-30 4,600 Sold Some -2,500 $ -189 $ 348
Ntv Asset Management Llc 2016-09-30 0 Sold All -2,750 $ -208 $ 0
Breton Hill Capital Ltd 2016-09-30 0 Sold All -2,800 $ -211 $ 0
Quantbot Technologies Lp 2016-09-30 6,027 Sold Some -2,852 $ -215 $ 456
Omers Administration Corp 2016-09-30 0 Sold All -2,900 $ -219 $ 0
Bank Of Hawaii 2016-09-30 0 Sold All -3,235 $ -244 $ 0
Swiss National Bank 2016-09-30 116,300 Sold Some -3,400 $ -257 $ 8,801
Ahl Partners Llp 2016-09-30 36,732 Sold Some -3,700 $ -280 $ 2,779
Stevens Capital Management Lp 2016-09-30 0 Sold All -3,703 $ -280 $ 0
Twin Tree Management Lp 2016-09-30 0 Sold All -3,760 $ -284 $ 0
Tdam Usa Inc 2016-09-30 17,626 Sold Some -3,897 $ -294 $ 1,333
Quadrature Capital Ltd 2016-09-30 3,091 Sold Some -4,271 $ -323 $ 233
Tfs Capital Llc 2016-09-30 0 Sold All -4,274 $ -323 $ 0
Bokf Na 2016-09-30 40,214 Sold Some -4,277 $ -323 $ 3,043
Cubist Systematic Strategies Llc 2016-09-30 2,756 Sold Some -4,346 $ -328 $ 208
Profit Investment Management Llc 2016-09-30 33,586 Sold Some -4,414 $ -334 $ 2,541
Oakbrook Investments Llc 2016-09-30 0 Sold All -4,500 $ -340 $ 0
King Luther Capital Management Corp 2016-09-30 131,835 Sold Some -4,600 $ -348 $ 9,977
Profund Advisors Llc 2016-09-30 16,411 Sold Some -4,645 $ -351 $ 1,241
Lucus Advisors Llc 2016-09-30 0 Sold All -4,664 $ -352 $ 0
Invictus Rg 2016-09-30 2,183 Sold Some -4,975 $ -376 $ 165
Kennedy Capital Management Inc 2016-09-30 122,429 Sold Some -5,088 $ -385 $ 9,265
Zweig-Dimenna Associates Llc 2016-09-30 0 Sold All -5,600 $ -423 $ 0
Fox Run Management L L C 2016-09-30 0 Sold All -5,800 $ -438 $ 0
Timber Hill Llc 2016-09-30 0 Sold All -6,461 $ -488 $ 0
Hennessy Advisors Inc 2016-09-30 66,400 Sold Some -7,200 $ -544 $ 5,025
Engineers Gate Manager Lp 2016-09-30 0 Sold All -7,400 $ -560 $ 0
Shelton Capital Management 2016-09-30 0 Sold All -7,479 $ -566 $ 0
Bridgewater Associates Lp 2016-09-30 0 Sold All -7,500 $ -567 $ 0
Nuveen Asset Management Llc 2016-09-30 146,059 Sold Some -7,800 $ -590 $ 11,053
Landscape Capital Management L L C 2016-09-30 0 Sold All -7,800 $ -590 $ 0
Dynamic Capital Management Ltd 2016-09-30 0 Sold All -7,870 $ -595 $ 0
Northpointe Capital Llc 2016-09-30 48,647 Sold Some -7,938 $ -600 $ 3,681
Vident Investment Advisory Llc 2016-09-30 29,915 Sold Some -8,006 $ -605 $ 2,263
Pacad Investment Ltd 2016-09-30 4,500 Sold Some -8,418 $ -637 $ 340
New York State Common Retirement Fund 2016-09-30 314,077 Sold Some -8,596 $ -650 $ 23,769
Chicago Equity Partners Llc 2016-09-30 63,920 Sold Some -9,065 $ -686 $ 4,837
South Dakota Investment Council 2016-09-30 243,790 Sold Some -10,270 $ -777 $ 18,450
Oregon Public Employees Retirement Fund 2016-09-30 24,906 Sold Some -10,817 $ -818 $ 1,884
Convergence Investment Partners Llc 2016-09-30 0 Sold All -10,950 $ -828 $ 0
Hanseatic Management Services Inc 2016-09-30 0 Sold All -11,583 $ -876 $ 0
Lingohr Partner Asset Management Gmbh 2016-09-30 0 Sold All -12,222 $ -924 $ 0
Jacobs Levy Equity Management Inc 2016-09-30 0 Sold All -12,610 $ -954 $ 0
Dowling Yahnke Llc 2016-09-30 562,795 Sold Some -12,611 $ -954 $ 42,592
I G Investment Management Ltd 2016-09-30 67,459 Sold Some -12,898 $ -976 $ 5,105
Sg Americas Securities Llc 2016-09-30 8,315 Sold Some -16,067 $ -1,215 $ 629
Marshall Wace Llp 2016-09-30 4,683 Sold Some -16,767 $ -1,268 $ 354
American International Group Inc 2016-09-30 140,074 Sold Some -17,902 $ -1,354 $ 10,600
Clinton Group Inc 2016-09-30 13,832 Sold Some -19,392 $ -1,467 $ 1,046
Ccm Investment Advisers Llc 2016-09-30 6,650 Sold Some -19,410 $ -1,468 $ 503
Retirement Systems Of Alabama 2016-09-30 190,162 Sold Some -19,464 $ -1,473 $ 14,391
New York State Teachers Retirement System 2016-09-30 129,135 Sold Some -20,000 $ -1,513 $ 9,772
Thrivent Financial For Lutherans 2016-09-30 49,530 Sold Some -22,350 $ -1,691 $ 3,748
Menta Capital Llc 2016-09-30 0 Sold All -27,803 $ -2,104 $ 0
Brandywine Global Investment Management Llc 2016-09-30 1,314,778 Sold Some -29,755 $ -2,251 $ 99,502
Hahn Capital Management Llc 2016-09-30 537,818 Sold Some -29,760 $ -2,252 $ 40,702
Ngam Advisors L P 2016-09-30 149,331 Sold Some -31,855 $ -2,410 $ 11,301
Hsbc Holdings Plc 2016-09-30 142,236 Sold Some -37,049 $ -2,803 $ 10,764
Royce Associates Lp 2016-09-30 1,277,615 Sold Some -40,597 $ -3,072 $ 96,689
Dupont Capital Management Corp 2016-09-30 88,638 Sold Some -49,393 $ -3,738 $ 6,708
Cooke Bieler Lp 2016-09-30 236,478 Sold Some -52,579 $ -3,979 $ 17,896
Fort Washington Investment Advisors Inc Oh 2016-09-30 99,732 Sold Some -53,782 $ -4,070 $ 7,547
Mackenzie Financial Corp 2016-09-30 207,689 Sold Some -75,851 $ -5,740 $ 15,717
Envestnet Asset Management Inc 2016-09-30 8,652 Sold Some -81,440 $ -6,163 $ 654
Emerald Acquisition Ltd 2016-09-30 278,834 Sold Some -105,394 $ -7,976 $ 21,102
Lord Abbett Co Llc 2016-09-30 1,336,337 Sold Some -171,006 $ -12,941 $ 101,133
First Quadrant L P Ca 2016-09-30 29,492 Sold Some -315,902 $ -23,907 $ 2,231
Vaughan Nelson Investment Management L P 2016-09-30 1,211,975 Sold Some -317,075 $ -23,996 $ 91,722
3g Capital Partners Lp 2016-09-30 0 Sold All -500,000 $ -37,840 $ 0